createdAt,value
2023-04-12T00:00:11.882Z,48.19
2023-04-12T00:02:42.140Z,48.09
2023-04-12T00:05:11.516Z,48.37
2023-04-12T00:07:40.336Z,48.97
2023-04-12T00:10:10.473Z,48.90
2023-04-12T00:12:41.077Z,49.29
2023-04-12T00:15:10.861Z,49.17
2023-04-12T00:17:39.281Z,49.35
2023-04-12T00:20:12.251Z,48.94
2023-04-12T00:22:41.520Z,49.00
2023-04-12T00:25:10.566Z,49.04
2023-04-12T00:27:40.640Z,48.55
2023-04-12T00:30:10.134Z,49.33
2023-04-12T00:32:38.528Z,50.03
2023-04-12T00:35:08.397Z,50.01
2023-04-12T00:37:38.650Z,49.94
2023-04-12T00:40:11.615Z,48.73
2023-04-12T00:42:41.618Z,49.40
2023-04-12T00:45:11.273Z,49.52
2023-04-12T00:47:41.101Z,49.42
2023-04-12T00:50:11.275Z,49.41
2023-04-12T00:52:41.617Z,50.19
2023-04-12T00:55:10.963Z,50.38
2023-04-12T00:57:41.766Z,50.25
2023-04-12T01:00:13.529Z,51.42
2023-04-12T01:02:47.724Z,52.22
2023-04-12T01:05:22.148Z,53.79
2023-04-12T01:08:04.975Z,54.26
2023-04-12T01:10:43.869Z,55.65
2023-04-12T01:13:29.853Z,56.70
2023-04-12T01:16:05.832Z,56.68
2023-04-12T01:18:40.827Z,57.07
2023-04-12T01:21:18.609Z,57.17
2023-04-12T01:24:04.957Z,58.07
2023-04-12T01:26:40.781Z,58.21
2023-04-12T01:29:13.510Z,58.40
2023-04-12T01:31:46.921Z,58.78
2023-04-12T01:34:16.627Z,59.80
2023-04-12T01:36:49.481Z,59.55
2023-04-12T01:39:18.017Z,60.89
2023-04-12T01:41:48.964Z,59.94
2023-04-12T01:44:20.073Z,60.41
2023-04-12T01:46:49.757Z,61.36
2023-04-12T01:49:20.250Z,61.85
2023-04-12T01:51:56.012Z,61.69
2023-04-12T01:54:29.346Z,62.56
2023-04-12T01:57:01.913Z,62.52
2023-04-12T01:59:37.851Z,62.71
2023-04-12T02:02:07.226Z,63.46
2023-04-12T02:04:37.074Z,64.07
2023-04-12T02:07:05.510Z,64.25
2023-04-12T02:09:39.376Z,64.52
2023-04-12T02:12:08.612Z,64.56
2023-04-12T02:14:39.278Z,64.99
2023-04-12T02:17:08.649Z,65.53
2023-04-12T02:19:38.014Z,65.64
2023-04-12T02:22:08.279Z,65.22
2023-04-12T02:24:36.681Z,65.54
2023-04-12T02:27:06.070Z,66.42
2023-04-12T02:29:35.536Z,66.63
2023-04-12T02:32:06.080Z,66.58
2023-04-12T02:34:36.629Z,67.03
2023-04-12T02:37:17.746Z,66.71
2023-04-12T02:39:46.241Z,67.08
2023-04-12T02:42:14.902Z,67.62
2023-04-12T02:44:47.835Z,68.45
2023-04-12T02:47:18.378Z,68.60
2023-04-12T02:49:49.676Z,67.95
2023-04-12T02:52:20.245Z,67.80
2023-04-12T02:55:22.028Z,68.13
2023-04-12T02:57:50.657Z,69.02
2023-04-12T03:00:20.241Z,68.91
2023-04-12T03:02:52.865Z,68.65
2023-04-12T03:05:27.439Z,69.18
2023-04-12T03:07:56.419Z,70.17
2023-04-12T03:10:37.383Z,69.79
2023-04-12T03:13:05.976Z,72.03
2023-04-12T03:15:37.439Z,71.17
2023-04-12T03:18:07.696Z,71.46
2023-04-12T03:20:47.462Z,71.96
2023-04-12T03:23:16.967Z,71.78
2023-04-12T03:25:49.126Z,71.79
2023-04-12T03:28:31.218Z,72.52
2023-04-12T03:31:00.798Z,72.94
2023-04-12T03:33:41.055Z,73.90
2023-04-12T03:36:19.043Z,73.63
2023-04-12T03:38:52.786Z,73.23
2023-04-12T03:41:23.520Z,73.70
2023-04-12T03:43:52.406Z,74.91
2023-04-12T03:46:20.972Z,73.93
2023-04-12T03:48:57.364Z,74.00
2023-04-12T03:51:30.690Z,75.05
2023-04-12T03:54:04.818Z,74.21
2023-04-12T03:56:47.969Z,74.78
2023-04-12T03:59:24.279Z,75.21
2023-04-12T04:01:52.699Z,75.34
2023-04-12T04:04:24.358Z,76.02
2023-04-12T04:06:57.392Z,76.10
2023-04-12T04:09:27.737Z,76.04
2023-04-12T04:11:56.649Z,77.08
2023-04-12T04:14:25.898Z,77.47
2023-04-12T04:16:55.280Z,77.69
2023-04-12T04:19:25.191Z,78.01
2023-04-12T04:21:56.302Z,78.05
2023-04-12T04:24:25.174Z,79.13
2023-04-12T04:26:56.317Z,78.26
2023-04-12T04:29:29.174Z,79.27
2023-04-12T04:31:58.853Z,79.78
2023-04-12T04:34:29.493Z,80.01
2023-04-12T04:37:08.146Z,80.30
2023-04-12T04:39:37.430Z,80.91
2023-04-12T04:42:06.647Z,80.47
2023-04-12T04:44:42.687Z,80.52
2023-04-12T04:47:12.543Z,81.43
2023-04-12T04:49:43.272Z,80.61
2023-04-12T04:52:29.688Z,81.50
2023-04-12T04:55:06.404Z,81.31
2023-04-12T04:57:38.207Z,81.44
2023-04-12T05:00:11.800Z,81.75
2023-04-12T05:02:45.898Z,81.70
2023-04-12T05:05:23.207Z,81.97
2023-04-12T05:07:56.680Z,81.72
2023-04-12T05:10:25.839Z,82.06
2023-04-12T05:12:54.766Z,83.04
2023-04-12T05:15:25.409Z,82.77
2023-04-12T05:17:53.865Z,82.36
2023-04-12T05:20:23.782Z,82.79
2023-04-12T05:22:52.171Z,83.24
2023-04-12T05:25:21.565Z,83.06
2023-04-12T05:27:57.255Z,83.08
2023-04-12T05:30:26.862Z,82.56
2023-04-12T05:32:55.333Z,82.92
2023-04-12T05:35:25.103Z,83.94
2023-04-12T05:37:59.347Z,83.13
2023-04-12T05:40:27.731Z,84.42
2023-04-12T05:42:56.858Z,82.38
2023-04-12T05:45:26.441Z,83.38
2023-04-12T05:47:56.246Z,83.55
2023-04-12T05:50:26.388Z,84.23
2023-04-12T05:52:56.083Z,84.03
2023-04-12T05:55:29.231Z,82.78
2023-04-12T05:57:58.638Z,84.00
2023-04-12T06:00:28.968Z,84.33
2023-04-12T06:02:58.859Z,85.32
2023-04-12T06:05:28.753Z,85.10
2023-04-12T06:07:59.963Z,84.58
2023-04-12T06:10:28.505Z,84.87
2023-04-12T06:12:56.934Z,84.76
2023-04-12T06:15:25.322Z,84.83
2023-04-12T06:17:56.651Z,85.00
2023-04-12T06:20:24.988Z,84.65
2023-04-12T06:22:55.212Z,84.54
2023-04-12T06:25:24.175Z,84.72
2023-04-12T06:27:53.581Z,84.08
2023-04-12T06:30:23.923Z,85.11
2023-04-12T06:32:54.616Z,86.20
2023-04-12T06:35:24.201Z,84.61
2023-04-12T06:37:54.344Z,84.33
2023-04-12T06:40:22.943Z,84.76
2023-04-12T06:42:51.327Z,84.35
2023-04-12T06:45:23.895Z,84.65
2023-04-12T06:47:52.302Z,84.93
2023-04-12T06:50:20.634Z,84.94
2023-04-12T06:52:49.036Z,85.09
2023-04-12T06:55:19.731Z,84.69
2023-04-12T06:57:49.132Z,85.08
2023-04-12T07:00:18.191Z,85.18
2023-04-12T07:02:46.773Z,84.67
2023-04-12T07:05:15.806Z,84.54
2023-04-12T07:07:44.224Z,84.70
2023-04-12T07:10:13.063Z,84.99
2023-04-12T07:12:42.882Z,85.73
2023-04-12T07:15:12.221Z,84.77
2023-04-12T07:17:40.646Z,85.13
2023-04-12T07:20:10.045Z,84.80
2023-04-12T07:22:38.364Z,84.22
2023-04-12T07:25:10.850Z,84.92
2023-04-12T07:27:42.391Z,85.01
2023-04-12T07:30:13.978Z,84.98
2023-04-12T07:32:42.388Z,85.71
2023-04-12T07:35:11.410Z,85.72
2023-04-12T07:37:39.721Z,86.00
2023-04-12T07:40:09.573Z,85.13
2023-04-12T07:42:37.919Z,85.63
2023-04-12T07:45:07.478Z,84.76
2023-04-12T07:47:37.268Z,84.51
2023-04-12T07:50:07.413Z,85.63
2023-04-12T07:52:35.971Z,85.51
2023-04-12T07:55:04.538Z,85.35
2023-04-12T07:57:34.183Z,85.07
2023-04-12T08:00:02.728Z,86.04
2023-04-12T08:02:42.912Z,85.98
2023-04-12T08:05:11.847Z,84.64
2023-04-12T08:07:40.276Z,84.69
2023-04-12T08:10:10.249Z,85.89
2023-04-12T08:12:38.609Z,85.40
2023-04-12T08:15:08.379Z,85.59
2023-04-12T08:17:36.709Z,86.07
2023-04-12T08:20:08.051Z,85.90
2023-04-12T08:22:36.684Z,86.16
2023-04-12T08:25:05.577Z,85.71
2023-04-12T08:27:33.858Z,86.21
2023-04-12T08:30:02.199Z,86.79
2023-04-12T08:32:30.854Z,85.88
2023-04-12T08:35:00.213Z,86.25
2023-04-12T08:37:29.903Z,86.46
2023-04-12T08:39:59.827Z,86.27
2023-04-12T08:42:31.811Z,85.92
2023-04-12T08:45:00.355Z,85.91
2023-04-12T08:47:28.819Z,86.04
2023-04-12T08:49:57.775Z,85.98
2023-04-12T08:52:26.122Z,86.88
2023-04-12T08:54:56.807Z,85.91
2023-04-12T08:57:25.552Z,86.60
2023-04-12T08:59:55.820Z,86.82
2023-04-12T09:02:24.260Z,85.90
2023-04-12T09:04:54.073Z,86.23
2023-04-12T09:07:27.739Z,86.34
2023-04-12T09:09:59.478Z,86.67
2023-04-12T09:12:27.988Z,85.41
2023-04-12T09:15:12.714Z,84.42
2023-04-12T09:17:42.696Z,85.54
2023-04-12T09:20:25.798Z,86.27
2023-04-12T09:22:57.162Z,85.92
2023-04-12T09:25:41.356Z,85.62
2023-04-12T09:28:26.927Z,86.71
2023-04-12T09:30:56.312Z,86.11
2023-04-12T09:33:35.503Z,87.88
2023-04-12T09:36:05.770Z,86.79
2023-04-12T09:38:36.911Z,86.96
2023-04-12T09:41:23.496Z,86.03
2023-04-12T09:43:54.678Z,86.11
2023-04-12T09:46:23.996Z,86.66
2023-04-12T09:48:54.256Z,86.99
2023-04-12T09:51:28.969Z,87.23
2023-04-12T09:54:01.588Z,87.01
2023-04-12T09:56:33.351Z,87.11
2023-04-12T09:59:04.387Z,87.26
2023-04-12T10:01:37.590Z,86.41
2023-04-12T10:04:08.905Z,86.74
2023-04-12T10:06:38.208Z,87.48
2023-04-12T10:09:08.695Z,86.37
2023-04-12T10:11:40.564Z,87.14
2023-04-12T10:14:09.922Z,86.70
2023-04-12T10:16:40.800Z,85.70
2023-04-12T10:19:10.327Z,85.34
2023-04-12T10:21:39.785Z,85.27
2023-04-12T10:24:08.734Z,85.66
2023-04-12T10:26:43.773Z,84.97
2023-04-12T10:29:29.538Z,84.17
2023-04-12T10:31:59.650Z,84.00
2023-04-12T10:34:31.828Z,84.91
2023-04-12T10:37:01.672Z,84.77
2023-04-12T10:39:42.267Z,84.26
2023-04-12T10:42:24.953Z,83.80
2023-04-12T10:44:58.665Z,84.61
2023-04-12T10:47:59.063Z,82.99
2023-04-12T10:50:30.174Z,84.12
2023-04-12T10:53:26.685Z,82.94
2023-04-12T10:55:55.204Z,81.97
2023-04-12T10:59:01.298Z,82.53
2023-04-12T11:01:42.047Z,83.00
2023-04-12T11:04:20.420Z,82.82
2023-04-12T11:07:15.266Z,83.17
2023-04-12T11:10:02.734Z,82.63
2023-04-12T11:12:36.247Z,82.40
2023-04-12T11:15:07.291Z,82.49
2023-04-12T11:17:59.737Z,81.64
2023-04-12T11:20:28.676Z,81.69
2023-04-12T11:22:57.759Z,82.73
2023-04-12T11:25:27.316Z,81.88
2023-04-12T11:27:57.101Z,81.60
2023-04-12T11:30:30.534Z,80.83
2023-04-12T11:32:58.921Z,81.16
2023-04-12T11:35:30.530Z,80.84
2023-04-12T11:37:59.364Z,80.87
2023-04-12T11:40:28.521Z,81.14
2023-04-12T11:42:57.876Z,81.18
2023-04-12T11:45:26.738Z,80.99
2023-04-12T11:47:58.262Z,81.05
2023-04-12T11:50:31.295Z,79.03
2023-04-12T11:53:12.592Z,81.09
2023-04-12T11:55:41.142Z,80.32
2023-04-12T11:58:09.556Z,79.19
2023-04-12T12:00:38.453Z,80.41
2023-04-12T12:03:08.935Z,80.62
2023-04-12T12:05:39.256Z,80.04
2023-04-12T12:08:08.868Z,80.50
2023-04-12T12:10:49.096Z,79.86
2023-04-12T12:13:27.003Z,79.95
2023-04-12T12:15:55.369Z,80.09
2023-04-12T12:18:29.015Z,80.35
2023-04-12T12:20:57.440Z,79.60
2023-04-12T12:23:31.150Z,79.87
2023-04-12T12:26:14.297Z,79.97
2023-04-12T12:28:52.463Z,79.17
2023-04-12T12:31:23.929Z,78.47
2023-04-12T12:33:57.876Z,77.84
2023-04-12T12:36:38.871Z,78.51
2023-04-12T12:39:11.127Z,76.65
2023-04-12T12:41:40.734Z,77.59
2023-04-12T12:44:11.366Z,76.83
2023-04-12T12:46:53.452Z,77.55
2023-04-12T12:49:26.789Z,77.11
2023-04-12T12:51:55.431Z,78.61
2023-04-12T12:54:39.587Z,79.31
2023-04-12T12:57:09.883Z,78.20
2023-04-12T12:59:38.235Z,77.64
2023-04-12T13:02:07.430Z,78.75
2023-04-12T13:04:37.758Z,79.31
2023-04-12T13:07:06.394Z,79.33
2023-04-12T13:09:34.832Z,79.27
2023-04-12T13:12:03.211Z,80.32
2023-04-12T13:14:31.598Z,79.56
2023-04-12T13:17:00.170Z,80.31
2023-04-12T13:19:28.482Z,81.20
2023-04-12T13:21:58.236Z,80.96
2023-04-12T13:24:26.802Z,77.53
2023-04-12T13:26:55.197Z,80.02
2023-04-12T13:29:23.496Z,80.38
2023-04-12T13:31:51.949Z,80.81
2023-04-12T13:34:20.300Z,81.19
2023-04-12T13:36:48.689Z,81.44
2023-04-12T13:39:18.582Z,81.69
2023-04-12T13:41:46.959Z,81.48
2023-04-12T13:44:15.427Z,81.33
2023-04-12T13:46:43.784Z,81.55
2023-04-12T13:49:12.674Z,81.46
2023-04-12T13:51:41.000Z,80.12
2023-04-12T13:54:09.386Z,80.05
2023-04-12T13:56:42.163Z,80.37
2023-04-12T13:59:12.367Z,78.83
2023-04-12T14:01:42.873Z,78.29
2023-04-12T14:04:11.513Z,78.79
2023-04-12T14:06:40.086Z,78.16
2023-04-12T14:09:08.928Z,78.34
2023-04-12T14:11:49.095Z,78.82
2023-04-12T14:14:17.502Z,78.37
2023-04-12T14:16:46.698Z,78.70
2023-04-12T14:19:15.186Z,78.96
2023-04-12T14:21:46.215Z,79.04
2023-04-12T14:24:16.217Z,79.92
2023-04-12T14:26:45.441Z,80.03
2023-04-12T14:29:15.494Z,79.36
2023-04-12T14:31:43.959Z,78.84
2023-04-12T14:34:13.548Z,79.14
2023-04-12T14:36:44.395Z,77.91
2023-04-12T14:39:14.023Z,77.85
2023-04-12T14:41:43.519Z,77.65
2023-04-12T14:44:12.062Z,77.42
2023-04-12T14:46:42.041Z,78.08
2023-04-12T14:49:10.441Z,77.73
2023-04-12T14:51:38.787Z,77.79
2023-04-12T14:54:07.213Z,77.76
2023-04-12T14:56:43.288Z,77.69
2023-04-12T14:59:15.761Z,77.28
2023-04-12T15:01:45.734Z,77.52
2023-04-12T15:04:14.501Z,76.72
2023-04-12T15:06:44.809Z,77.06
2023-04-12T15:09:15.754Z,77.42
2023-04-12T15:11:49.522Z,75.96
2023-04-12T15:14:20.493Z,76.45
2023-04-12T15:16:50.608Z,76.45
2023-04-12T15:19:22.547Z,75.46
2023-04-12T15:21:52.429Z,75.56
2023-04-12T15:24:22.350Z,74.45
2023-04-12T15:26:52.609Z,74.37
2023-04-12T15:29:22.317Z,75.16
2023-04-12T15:31:52.349Z,74.48
2023-04-12T15:34:23.217Z,73.92
2023-04-12T15:36:52.052Z,73.86
2023-04-12T15:39:21.259Z,73.82
2023-04-12T15:41:49.714Z,74.82
2023-04-12T15:44:18.092Z,74.50
2023-04-12T15:46:56.258Z,73.70
2023-04-12T15:49:35.608Z,74.38
2023-04-12T15:52:04.943Z,73.77
2023-04-12T15:54:33.541Z,73.48
2023-04-12T15:57:09.434Z,73.14
2023-04-12T15:59:38.730Z,73.67
2023-04-12T16:02:10.326Z,73.72
2023-04-12T16:04:40.758Z,73.57
2023-04-12T16:07:09.330Z,72.49
2023-04-12T16:09:40.126Z,72.47
2023-04-12T16:12:08.545Z,72.54
2023-04-12T16:14:37.124Z,70.99
2023-04-12T16:17:06.148Z,69.98
2023-04-12T16:19:34.493Z,69.46
2023-04-12T16:22:04.577Z,68.82
2023-04-12T16:24:32.964Z,66.80
2023-04-12T16:27:01.330Z,67.21
2023-04-12T16:29:31.572Z,66.46
2023-04-12T16:31:59.954Z,66.84
2023-04-12T16:34:28.352Z,66.63
2023-04-12T16:36:57.600Z,65.22
2023-04-12T16:39:29.204Z,64.85
2023-04-12T16:41:57.745Z,65.19
2023-04-12T16:44:26.087Z,65.18
2023-04-12T16:46:55.202Z,65.47
2023-04-12T16:49:23.645Z,65.38
2023-04-12T16:51:52.481Z,64.46
2023-04-12T16:54:21.810Z,64.44
2023-04-12T16:56:51.616Z,64.67
2023-04-12T16:59:20.074Z,63.36
2023-04-12T17:01:48.586Z,63.81
2023-04-12T17:04:17.283Z,63.47
2023-04-12T17:06:45.769Z,63.32
2023-04-12T17:09:14.155Z,63.97
2023-04-12T17:11:42.605Z,64.77
2023-04-12T17:14:12.422Z,64.18
2023-04-12T17:16:41.014Z,63.46
2023-04-12T17:19:10.588Z,63.46
2023-04-12T17:21:42.273Z,63.57
2023-04-12T17:24:10.931Z,63.87
2023-04-12T17:26:40.323Z,64.62
2023-04-12T17:29:09.298Z,65.02
2023-04-12T17:31:39.482Z,64.60
2023-04-12T17:34:08.204Z,64.24
2023-04-12T17:36:38.196Z,64.84
2023-04-12T17:39:06.538Z,64.41
2023-04-12T17:41:34.936Z,67.89
2023-04-12T17:44:03.283Z,64.66
2023-04-12T17:46:31.897Z,65.43
2023-04-12T17:49:04.118Z,64.38
2023-04-12T17:51:33.326Z,64.22
2023-04-12T17:54:03.598Z,64.40
2023-04-12T17:56:31.986Z,64.30
2023-04-12T17:59:02.024Z,65.32
2023-04-12T18:01:31.664Z,64.60
2023-04-12T18:04:02.789Z,63.83
2023-04-12T18:06:31.673Z,63.81
2023-04-12T18:09:00.034Z,63.13
2023-04-12T18:11:28.592Z,63.57
2023-04-12T18:13:57.374Z,63.71
2023-04-12T18:16:26.620Z,61.58
2023-04-12T18:18:55.373Z,61.68
2023-04-12T18:21:25.171Z,61.90
2023-04-12T18:23:53.555Z,61.44
2023-04-12T18:26:23.102Z,61.75
2023-04-12T18:28:52.006Z,61.99
2023-04-12T18:31:21.462Z,62.04
2023-04-12T18:33:51.405Z,62.32
2023-04-12T18:36:19.738Z,62.34
2023-04-12T18:38:49.453Z,62.26
2023-04-12T18:41:17.803Z,62.18
2023-04-12T18:43:46.612Z,62.48
2023-04-12T18:46:17.886Z,62.79
2023-04-12T18:48:48.013Z,62.58
2023-04-12T18:51:16.969Z,63.00
2023-04-12T18:53:45.419Z,64.94
2023-04-12T18:56:18.515Z,64.82
2023-04-12T18:58:55.196Z,66.82
2023-04-12T19:01:25.272Z,66.64
2023-04-12T19:03:54.210Z,69.08
2023-04-12T19:06:22.715Z,69.19
2023-04-12T19:08:51.230Z,69.13
2023-04-12T19:11:21.354Z,68.92
2023-04-12T19:13:49.731Z,66.67
2023-04-12T19:16:18.239Z,67.27
2023-04-12T19:18:46.984Z,68.60
2023-04-12T19:21:15.552Z,69.54
2023-04-12T19:23:44.254Z,67.50
2023-04-12T19:26:12.974Z,68.38
2023-04-12T19:28:43.354Z,68.35
2023-04-12T19:31:12.168Z,69.22
2023-04-12T19:33:42.166Z,68.60
2023-04-12T19:36:11.752Z,68.11
2023-04-12T19:38:41.439Z,67.14
2023-04-12T19:41:09.860Z,67.04
2023-04-12T19:43:38.284Z,66.20
2023-04-12T19:46:08.539Z,66.74
2023-04-12T19:48:37.818Z,67.89
2023-04-12T19:51:07.380Z,66.56
2023-04-12T19:53:35.730Z,66.36
2023-04-12T19:56:05.793Z,67.55
2023-04-12T19:58:34.604Z,67.56
2023-04-12T20:01:03.377Z,67.58
2023-04-12T20:03:33.222Z,67.78
2023-04-12T20:06:04.382Z,68.31
2023-04-12T20:08:33.152Z,67.31
2023-04-12T20:11:02.524Z,67.98
2023-04-12T20:13:31.472Z,68.42
2023-04-12T20:16:01.258Z,68.29
2023-04-12T20:18:29.710Z,68.50
2023-04-12T20:20:59.450Z,68.61
2023-04-12T20:23:27.918Z,69.34
2023-04-12T20:25:56.302Z,67.95
2023-04-12T20:28:25.766Z,68.67
2023-04-12T20:30:54.210Z,69.41
2023-04-12T20:33:22.715Z,69.67
2023-04-12T20:35:51.938Z,70.55
2023-04-12T20:38:21.663Z,70.01
2023-04-12T20:40:50.055Z,70.05
2023-04-12T20:43:18.422Z,69.29
2023-04-12T20:45:48.692Z,68.30
2023-04-12T20:48:17.200Z,66.23
2023-04-12T20:50:46.011Z,67.75
2023-04-12T20:53:15.856Z,68.47
2023-04-12T20:55:46.582Z,68.18
2023-04-12T20:58:16.368Z,67.86
2023-04-12T21:00:44.797Z,67.68
2023-04-12T21:03:13.151Z,67.41
2023-04-12T21:05:41.992Z,68.84
2023-04-12T21:08:10.298Z,68.32
2023-04-12T21:10:38.681Z,68.69
2023-04-12T21:13:08.335Z,69.29
2023-04-12T21:15:36.745Z,69.62
2023-04-12T21:18:05.285Z,71.00
2023-04-12T21:20:35.570Z,70.01
2023-04-12T21:23:07.154Z,70.03
2023-04-12T21:25:35.795Z,70.70
2023-04-12T21:28:04.404Z,70.89
2023-04-12T21:30:34.369Z,70.76
2023-04-12T21:33:04.358Z,70.41
2023-04-12T21:35:32.968Z,72.95
2023-04-12T21:38:01.459Z,72.57
2023-04-12T21:40:29.837Z,72.18
2023-04-12T21:42:58.207Z,71.72
2023-04-12T21:45:27.433Z,71.21
2023-04-12T21:47:57.258Z,72.53
2023-04-12T21:50:25.866Z,72.38
2023-04-12T21:52:55.683Z,71.39
2023-04-12T21:55:24.347Z,71.63
2023-04-12T21:57:52.990Z,71.30
2023-04-12T22:00:21.715Z,70.83
2023-04-12T22:02:50.241Z,70.17
2023-04-12T22:05:20.192Z,71.08
2023-04-12T22:07:48.565Z,71.08
2023-04-12T22:10:18.770Z,70.85
2023-04-12T22:12:50.193Z,71.55
2023-04-12T22:15:18.835Z,70.76
2023-04-12T22:17:47.816Z,71.23
2023-04-12T22:20:16.308Z,71.30
2023-04-12T22:22:46.112Z,71.41
2023-04-12T22:25:15.717Z,71.22
2023-04-12T22:27:49.889Z,70.27
2023-04-12T22:30:18.238Z,70.67
2023-04-12T22:32:46.656Z,70.34
2023-04-12T22:35:15.910Z,69.99
2023-04-12T22:37:46.095Z,69.61
2023-04-12T22:40:14.762Z,69.29
2023-04-12T22:42:46.588Z,69.53
2023-04-12T22:45:16.113Z,69.71
2023-04-12T22:47:45.055Z,69.21
2023-04-12T22:50:14.328Z,69.28
2023-04-12T22:52:42.801Z,69.41
2023-04-12T22:55:14.265Z,68.83
2023-04-12T22:57:42.676Z,69.03
2023-04-12T23:00:17.078Z,68.53
2023-04-12T23:02:47.781Z,67.84
2023-04-12T23:05:16.594Z,68.53
2023-04-12T23:07:45.062Z,68.32
2023-04-12T23:10:14.790Z,68.55
2023-04-12T23:12:43.445Z,67.89
2023-04-12T23:15:12.754Z,69.11
2023-04-12T23:17:41.143Z,68.71
2023-04-12T23:20:14.853Z,69.00
2023-04-12T23:22:57.799Z,68.62
2023-04-12T23:25:39.027Z,68.57
2023-04-12T23:28:12.847Z,68.11
2023-04-12T23:30:44.673Z,68.42
2023-04-12T23:33:13.086Z,67.88
2023-04-12T23:35:42.238Z,67.89
2023-04-12T23:38:15.759Z,68.07
2023-04-12T23:40:47.624Z,68.91
2023-04-12T23:43:16.040Z,68.32
2023-04-12T23:45:44.476Z,68.75
2023-04-12T23:48:13.021Z,68.18
2023-04-12T23:50:41.401Z,67.09
2023-04-12T23:53:09.853Z,67.81
2023-04-12T23:55:38.260Z,68.16
2023-04-12T23:58:08.457Z,67.20
